createdAt,value
2019-03-28T00:01:52.359Z,4.00
2019-03-28T00:04:22.953Z,3.90
2019-03-28T00:06:53.515Z,3.90
2019-03-28T00:09:24.263Z,3.90
2019-03-28T00:11:54.815Z,3.80
2019-03-28T00:14:25.725Z,3.80
2019-03-28T00:16:56.258Z,3.70
2019-03-28T00:19:26.919Z,3.70
2019-03-28T00:21:57.557Z,3.70
2019-03-28T00:24:32.220Z,3.70
2019-03-28T00:27:02.856Z,3.70
2019-03-28T00:29:33.465Z,3.70
2019-03-28T00:32:04.014Z,3.70
2019-03-28T00:34:35.182Z,3.60
2019-03-28T00:37:07.650Z,3.60
2019-03-28T00:39:38.055Z,3.50
2019-03-28T00:42:08.599Z,3.50
2019-03-28T00:44:39.187Z,3.50
2019-03-28T00:47:11.096Z,3.40
2019-03-28T00:49:41.875Z,3.40
2019-03-28T00:52:12.524Z,3.40
2019-03-28T00:54:44.284Z,3.40
2019-03-28T00:57:14.827Z,3.50
2019-03-28T00:59:45.396Z,3.50
2019-03-28T01:02:17.004Z,3.50
2019-03-28T01:04:47.662Z,3.50
2019-03-28T01:07:18.272Z,3.50
2019-03-28T01:09:48.855Z,3.50
2019-03-28T01:12:19.406Z,3.50
2019-03-28T01:14:49.963Z,3.50
2019-03-28T01:17:20.483Z,3.40
2019-03-28T01:19:51.042Z,3.40
2019-03-28T01:22:21.562Z,3.40
2019-03-28T01:24:52.156Z,3.30
2019-03-28T01:27:22.715Z,3.30
2019-03-28T01:29:53.258Z,3.30
2019-03-28T01:32:23.767Z,3.20
2019-03-28T01:34:54.316Z,3.20
2019-03-28T01:37:24.847Z,3.20
2019-03-28T01:39:55.432Z,3.20
2019-03-28T01:42:27.166Z,3.10
2019-03-28T01:44:57.895Z,3.10
2019-03-28T01:47:29.502Z,3.10
2019-03-28T01:50:00.407Z,3.10
2019-03-28T01:52:30.919Z,3.10
2019-03-28T01:55:01.464Z,3.10
2019-03-28T01:57:32.132Z,3.10
2019-03-28T02:00:02.681Z,3.10
2019-03-28T02:02:33.391Z,3.10
2019-03-28T02:05:04.290Z,3.10
2019-03-28T02:07:34.831Z,3.10
2019-03-28T02:10:06.782Z,3.10
2019-03-28T02:12:37.327Z,3.10
2019-03-28T02:15:09.218Z,3.10
2019-03-28T02:17:39.846Z,3.10
2019-03-28T02:20:11.345Z,3.00
2019-03-28T02:22:41.955Z,3.00
2019-03-28T02:25:12.642Z,3.00
2019-03-28T02:27:43.196Z,3.00
2019-03-28T02:30:14.103Z,2.90
2019-03-28T02:32:44.654Z,2.90
2019-03-28T02:35:15.236Z,2.80
2019-03-28T02:37:45.792Z,2.70
2019-03-28T02:40:16.863Z,2.70
2019-03-28T02:42:47.688Z,2.70
2019-03-28T02:45:18.276Z,2.60
2019-03-28T02:47:48.833Z,2.60
2019-03-28T02:50:19.422Z,2.60
2019-03-28T02:52:50.015Z,2.60
2019-03-28T02:55:20.702Z,2.60
2019-03-28T02:57:51.242Z,2.50
2019-03-28T03:00:21.853Z,2.60
2019-03-28T03:02:52.471Z,2.60
2019-03-28T03:05:23.023Z,2.60
2019-03-28T03:07:53.555Z,2.60
2019-03-28T03:10:24.146Z,2.60
2019-03-28T03:12:54.755Z,2.60
2019-03-28T03:15:25.319Z,2.70
2019-03-28T03:17:55.851Z,2.70
2019-03-28T03:20:26.407Z,2.80
2019-03-28T03:22:56.935Z,2.80
2019-03-28T03:25:27.499Z,2.80
2019-03-28T03:27:59.312Z,2.80
2019-03-28T03:30:31.715Z,2.80
2019-03-28T03:33:02.465Z,2.80
2019-03-28T03:35:33.039Z,2.80
2019-03-28T03:38:04.561Z,2.90
2019-03-28T03:40:35.273Z,2.90
2019-03-28T03:43:05.937Z,2.90
2019-03-28T03:45:36.506Z,2.90
2019-03-28T03:48:07.072Z,3.00
2019-03-28T03:50:37.739Z,3.10
2019-03-28T03:53:08.293Z,3.10
2019-03-28T03:55:38.879Z,3.10
2019-03-28T03:58:16.272Z,3.00
2019-03-28T04:00:41.771Z,3.00
2019-03-28T04:03:12.385Z,2.90
2019-03-28T04:05:42.954Z,3.00
2019-03-28T04:08:13.565Z,3.00
2019-03-28T04:10:44.174Z,3.00
2019-03-28T04:13:14.709Z,3.00
2019-03-28T04:15:45.415Z,3.00
2019-03-28T04:18:15.988Z,3.00
2019-03-28T04:20:46.551Z,3.00
2019-03-28T04:23:17.106Z,3.00
2019-03-28T04:25:47.975Z,3.00
2019-03-28T04:28:30.888Z,3.00
2019-03-28T04:30:50.798Z,2.90
2019-03-28T04:33:21.326Z,2.90
2019-03-28T04:35:51.907Z,3.00
2019-03-28T04:38:22.463Z,3.00
2019-03-28T04:40:53.023Z,3.10
2019-03-28T04:43:23.572Z,3.10
2019-03-28T04:45:54.223Z,3.20
2019-03-28T04:48:24.774Z,3.20
2019-03-28T04:50:56.417Z,3.30
2019-03-28T04:53:29.537Z,3.40
2019-03-28T04:55:59.234Z,3.40
2019-03-28T04:58:29.779Z,3.40
2019-03-28T05:01:00.343Z,3.40
2019-03-28T05:03:30.874Z,3.40
2019-03-28T05:06:01.451Z,3.40
2019-03-28T05:08:32.104Z,3.50
2019-03-28T05:11:03.863Z,3.50
2019-03-28T05:13:34.398Z,3.50
2019-03-28T05:16:05.059Z,3.60
2019-03-28T05:18:35.594Z,3.60
2019-03-28T05:21:06.344Z,3.50
2019-03-28T05:23:37.179Z,3.60
2019-03-28T05:26:07.774Z,3.60
2019-03-28T05:28:38.310Z,3.70
2019-03-28T05:31:08.891Z,3.70
2019-03-28T05:33:39.438Z,3.80
2019-03-28T05:36:10.008Z,3.80
2019-03-28T05:38:40.550Z,3.80
2019-03-28T05:41:11.148Z,3.80
2019-03-28T05:43:41.675Z,3.90
2019-03-28T05:46:12.264Z,3.90
2019-03-28T05:48:42.819Z,4.00
2019-03-28T05:51:13.405Z,4.10
2019-03-28T05:53:44.185Z,4.10
2019-03-28T05:56:14.920Z,4.20
2019-03-28T05:58:45.459Z,4.20
2019-03-28T06:01:16.045Z,4.40
2019-03-28T06:03:46.660Z,4.40
2019-03-28T06:06:17.235Z,4.50
2019-03-28T06:08:47.785Z,4.70
2019-03-28T06:11:18.344Z,4.80
2019-03-28T06:13:48.892Z,4.90
2019-03-28T06:16:19.451Z,5.00
2019-03-28T06:18:50.004Z,5.20
2019-03-28T06:21:21.399Z,5.30
2019-03-28T06:23:52.076Z,5.40
2019-03-28T06:26:22.668Z,5.50
2019-03-28T06:28:53.203Z,5.60
2019-03-28T06:31:23.782Z,5.70
2019-03-28T06:33:54.327Z,5.70
2019-03-28T06:36:26.709Z,5.80
2019-03-28T06:38:57.569Z,6.00
2019-03-28T06:41:28.121Z,6.00
2019-03-28T06:43:58.662Z,6.00
2019-03-28T06:46:29.223Z,6.00
2019-03-28T06:48:59.859Z,6.20
2019-03-28T06:51:30.431Z,6.30
2019-03-28T06:54:00.983Z,6.30
2019-03-28T06:56:31.553Z,6.50
2019-03-28T06:59:02.100Z,6.80
2019-03-28T07:01:32.674Z,7.10
2019-03-28T07:04:03.222Z,7.20
2019-03-28T07:06:35.334Z,7.40
2019-03-28T07:09:08.413Z,7.70
2019-03-28T07:11:38.999Z,7.80
2019-03-28T07:14:09.546Z,8.20
2019-03-28T07:16:40.118Z,8.40
2019-03-28T07:19:10.702Z,8.60
2019-03-28T07:21:41.269Z,8.50
2019-03-28T07:24:11.800Z,8.50
2019-03-28T07:26:42.471Z,8.30
2019-03-28T07:29:13.196Z,8.50
2019-03-28T07:31:43.755Z,8.70
2019-03-28T07:34:14.293Z,8.70
2019-03-28T07:36:44.898Z,8.90
2019-03-28T07:39:23.755Z,9.30
2019-03-28T07:41:54.455Z,9.40
2019-03-28T07:44:25.360Z,9.60
2019-03-28T07:46:56.140Z,9.70
2019-03-28T07:49:26.697Z,9.70
2019-03-28T07:51:57.274Z,9.90
2019-03-28T07:54:27.871Z,10.10
2019-03-28T07:56:58.478Z,10.30
2019-03-28T07:59:29.054Z,10.50
2019-03-28T08:01:59.638Z,10.50
2019-03-28T08:04:30.238Z,10.50
2019-03-28T08:07:01.072Z,10.50
2019-03-28T08:09:36.914Z,10.60
2019-03-28T08:12:04.760Z,10.70
2019-03-28T08:14:35.700Z,10.70
2019-03-28T08:17:06.271Z,10.60
2019-03-28T08:19:37.971Z,10.90
2019-03-28T08:22:09.164Z,11.20
2019-03-28T08:24:39.875Z,11.30
2019-03-28T08:27:10.473Z,11.60
2019-03-28T08:29:41.078Z,11.80
2019-03-28T08:32:15.315Z,12.10
2019-03-28T08:34:45.856Z,12.30
2019-03-28T08:37:16.458Z,12.30
2019-03-28T08:39:48.083Z,12.20
2019-03-28T08:42:19.584Z,12.40
2019-03-28T08:44:50.486Z,12.50
2019-03-28T08:47:22.039Z,12.60
2019-03-28T08:49:52.602Z,12.50
2019-03-28T08:52:24.242Z,12.40
2019-03-28T08:54:54.828Z,12.60
2019-03-28T08:57:25.460Z,12.80
2019-03-28T08:59:56.002Z,13.50
2019-03-28T09:02:26.574Z,14.00
2019-03-28T09:04:57.158Z,14.30
2019-03-28T09:07:27.859Z,14.10
2019-03-28T09:09:58.431Z,13.90
2019-03-28T09:12:29.064Z,14.00
2019-03-28T09:14:59.635Z,14.20
2019-03-28T09:17:30.267Z,14.30
2019-03-28T09:20:00.919Z,14.30
2019-03-28T09:22:31.591Z,14.00
2019-03-28T09:25:02.220Z,13.70
2019-03-28T09:27:32.820Z,13.70
2019-03-28T09:30:03.398Z,13.80
2019-03-28T09:32:35.249Z,13.70
2019-03-28T09:35:06.860Z,13.50
2019-03-28T09:37:38.491Z,13.50
2019-03-28T09:40:09.066Z,13.90
2019-03-28T09:42:39.646Z,14.60
2019-03-28T09:45:10.303Z,15.10
2019-03-28T09:47:40.917Z,16.30
2019-03-28T09:50:11.723Z,17.40
2019-03-28T09:52:42.411Z,17.60
2019-03-28T09:55:13.046Z,17.90
2019-03-28T09:57:43.708Z,18.40
2019-03-28T10:00:14.944Z,18.70
2019-03-28T10:02:45.639Z,18.70
2019-03-28T10:05:16.236Z,19.00
2019-03-28T10:07:46.916Z,18.60
2019-03-28T10:10:17.635Z,18.50
2019-03-28T10:12:48.315Z,19.00
2019-03-28T10:15:18.955Z,18.80
2019-03-28T10:17:49.662Z,19.10
2019-03-28T10:20:20.212Z,19.30
2019-03-28T10:22:50.824Z,18.60
2019-03-28T10:25:21.574Z,18.60
2019-03-28T10:27:52.368Z,17.90
2019-03-28T10:30:40.682Z,18.20
2019-03-28T10:33:11.679Z,18.00
2019-03-28T10:35:42.244Z,17.60
2019-03-28T10:38:12.855Z,17.40
2019-03-28T10:40:43.414Z,18.10
2019-03-28T10:43:14.042Z,18.20
2019-03-28T10:45:44.681Z,18.50
2019-03-28T10:48:15.316Z,18.10
2019-03-28T10:50:46.869Z,17.80
2019-03-28T10:53:17.701Z,17.30
2019-03-28T10:55:48.280Z,16.90
2019-03-28T10:58:19.650Z,16.60
2019-03-28T11:00:50.407Z,16.30
2019-03-28T11:03:21.086Z,16.10
2019-03-28T11:05:53.075Z,16.00
2019-03-28T11:08:23.652Z,15.80
2019-03-28T11:10:55.205Z,15.70
2019-03-28T11:13:25.797Z,15.70
2019-03-28T11:15:56.359Z,15.90
2019-03-28T11:18:26.957Z,15.50
2019-03-28T11:20:57.504Z,15.30
2019-03-28T11:23:28.085Z,15.30
2019-03-28T11:25:58.647Z,15.40
2019-03-28T11:28:29.233Z,15.20
2019-03-28T11:30:59.773Z,15.20
2019-03-28T11:33:30.407Z,15.20
2019-03-28T11:36:00.960Z,15.70
2019-03-28T11:38:31.629Z,16.20
2019-03-28T11:41:02.195Z,16.80
2019-03-28T11:43:33.142Z,16.90
2019-03-28T11:46:03.897Z,16.90
2019-03-28T11:48:34.503Z,16.70
2019-03-28T11:51:05.064Z,16.50
2019-03-28T11:53:35.661Z,16.30
2019-03-28T11:56:06.218Z,16.20
2019-03-28T11:58:36.823Z,16.30
2019-03-28T12:01:07.457Z,16.40
2019-03-28T12:03:38.043Z,16.70
2019-03-28T12:06:08.616Z,17.30
2019-03-28T12:08:39.218Z,17.50
2019-03-28T12:11:09.796Z,17.50
2019-03-28T12:13:45.007Z,17.20
2019-03-28T12:16:13.619Z,16.60
2019-03-28T12:18:44.279Z,16.30
2019-03-28T12:21:15.904Z,16.10
2019-03-28T12:23:46.496Z,15.90
2019-03-28T12:26:18.086Z,15.70
2019-03-28T12:28:49.375Z,15.70
2019-03-28T12:31:19.927Z,15.80
2019-03-28T12:33:50.526Z,16.20
2019-03-28T12:36:21.081Z,16.60
2019-03-28T12:38:51.680Z,17.10
2019-03-28T12:41:22.304Z,17.10
2019-03-28T12:43:52.892Z,16.80
2019-03-28T12:46:25.642Z,17.00
2019-03-28T12:48:56.015Z,17.20
2019-03-28T12:51:26.743Z,17.20
2019-03-28T12:53:57.355Z,17.30
2019-03-28T12:56:27.957Z,17.00
2019-03-28T12:58:58.560Z,16.80
2019-03-28T13:01:29.122Z,16.80
2019-03-28T13:03:59.724Z,16.60
2019-03-28T13:06:30.279Z,16.70
2019-03-28T13:09:00.999Z,16.80
2019-03-28T13:11:33.174Z,16.80
2019-03-28T13:14:03.766Z,16.90
2019-03-28T13:16:34.343Z,17.20
2019-03-28T13:19:04.926Z,17.50
2019-03-28T13:21:35.509Z,17.70
2019-03-28T13:24:07.859Z,17.90
2019-03-28T13:26:38.481Z,17.80
2019-03-28T13:29:09.095Z,17.40
2019-03-28T13:31:39.687Z,17.00
2019-03-28T13:34:10.282Z,16.90
2019-03-28T13:36:40.842Z,16.80
2019-03-28T13:39:11.434Z,16.70
2019-03-28T13:41:44.358Z,16.70
2019-03-28T13:44:14.282Z,17.00
2019-03-28T13:46:44.840Z,17.00
2019-03-28T13:49:15.450Z,17.00
2019-03-28T13:51:46.045Z,16.80
2019-03-28T13:54:16.641Z,16.80
2019-03-28T13:56:47.328Z,16.80
2019-03-28T13:59:18.000Z,16.60
2019-03-28T14:01:48.549Z,16.80
2019-03-28T14:04:19.154Z,17.00
2019-03-28T14:06:49.741Z,17.00
2019-03-28T14:09:23.128Z,17.10
2019-03-28T14:11:52.647Z,17.30
2019-03-28T14:14:23.250Z,17.50
2019-03-28T14:16:53.815Z,17.30
2019-03-28T14:19:24.415Z,17.40
2019-03-28T14:21:55.069Z,17.80
2019-03-28T14:24:25.747Z,18.00
2019-03-28T14:26:56.326Z,18.20
2019-03-28T14:29:29.746Z,18.00
2019-03-28T14:32:00.035Z,17.80
2019-03-28T14:34:30.746Z,17.60
2019-03-28T14:37:01.379Z,17.20
2019-03-28T14:39:32.023Z,16.90
2019-03-28T14:42:02.578Z,16.70
2019-03-28T14:44:33.175Z,16.70
2019-03-28T14:47:03.707Z,16.50
2019-03-28T14:49:34.325Z,16.50
2019-03-28T14:52:04.940Z,16.70
2019-03-28T14:54:35.534Z,16.50
2019-03-28T14:57:06.145Z,16.30
2019-03-28T14:59:38.150Z,16.20
2019-03-28T15:02:08.788Z,16.30
2019-03-28T15:04:39.606Z,16.30
2019-03-28T15:07:10.250Z,16.10
2019-03-28T15:09:47.198Z,16.00
2019-03-28T15:12:17.766Z,16.20
2019-03-28T15:14:48.376Z,16.40
2019-03-28T15:17:19.052Z,16.50
2019-03-28T15:19:49.701Z,16.40
2019-03-28T15:22:20.318Z,16.20
2019-03-28T15:24:50.919Z,16.00
2019-03-28T15:27:22.484Z,15.90
2019-03-28T15:29:53.094Z,16.00
2019-03-28T15:32:23.762Z,16.00
2019-03-28T15:34:55.023Z,15.90
2019-03-28T15:37:25.635Z,15.90
2019-03-28T15:39:56.269Z,15.90
2019-03-28T15:42:28.119Z,15.90
2019-03-28T15:44:58.799Z,15.80
2019-03-28T15:47:29.356Z,15.70
2019-03-28T15:49:59.970Z,15.70
2019-03-28T15:52:31.640Z,15.70
2019-03-28T15:55:02.455Z,15.70
2019-03-28T15:57:33.091Z,15.60
2019-03-28T16:00:03.849Z,15.60
2019-03-28T16:02:34.465Z,15.70
2019-03-28T16:05:05.418Z,15.60
2019-03-28T16:07:36.011Z,15.50
2019-03-28T16:10:07.698Z,15.40
2019-03-28T16:12:38.391Z,15.30
2019-03-28T16:15:09.694Z,15.10
2019-03-28T16:17:40.258Z,15.10
2019-03-28T16:20:11.570Z,14.90
2019-03-28T16:22:42.148Z,14.90
2019-03-28T16:25:12.851Z,14.80
2019-03-28T16:27:43.419Z,14.80
2019-03-28T16:30:14.636Z,14.80
2019-03-28T16:32:45.224Z,14.90
2019-03-28T16:35:15.876Z,15.00
2019-03-28T16:37:46.436Z,15.00
2019-03-28T16:40:17.099Z,15.10
2019-03-28T16:42:47.689Z,15.00
2019-03-28T16:45:19.357Z,15.00
2019-03-28T16:47:49.956Z,15.00
2019-03-28T16:50:20.543Z,14.80
2019-03-28T16:52:51.152Z,14.70
2019-03-28T16:55:26.443Z,14.60
2019-03-28T16:57:54.138Z,14.60
2019-03-28T17:00:45.498Z,14.50
2019-03-28T17:03:16.046Z,14.50
2019-03-28T17:05:47.238Z,14.50
2019-03-28T17:08:18.724Z,14.40
2019-03-28T17:10:54.092Z,14.30
2019-03-28T17:13:24.842Z,14.20
2019-03-28T17:15:57.031Z,14.20
2019-03-28T17:18:27.755Z,14.20
2019-03-28T17:20:58.334Z,14.20
2019-03-28T17:23:28.890Z,14.20
2019-03-28T17:25:59.765Z,14.10
2019-03-28T17:28:30.303Z,14.00
2019-03-28T17:31:01.191Z,14.00
2019-03-28T17:33:32.037Z,14.00
2019-03-28T17:36:02.927Z,13.90
2019-03-28T17:38:33.563Z,13.90
2019-03-28T17:41:06.570Z,13.80
2019-03-28T17:43:36.758Z,13.80
2019-03-28T17:46:07.436Z,13.70
2019-03-28T17:48:38.079Z,13.70
2019-03-28T17:51:09.550Z,13.60
2019-03-28T17:53:40.213Z,13.60
2019-03-28T17:56:10.792Z,13.60
2019-03-28T17:58:41.344Z,13.50
2019-03-28T18:01:12.031Z,13.50
2019-03-28T18:03:42.577Z,13.50
2019-03-28T18:06:13.175Z,13.50
2019-03-28T18:08:43.828Z,13.50
2019-03-28T18:11:14.436Z,13.40
2019-03-28T18:13:44.996Z,13.40
2019-03-28T18:16:15.602Z,13.50
2019-03-28T18:18:46.219Z,13.40
2019-03-28T18:21:16.811Z,13.40
2019-03-28T18:23:48.461Z,13.30
2019-03-28T18:26:19.808Z,13.30
2019-03-28T18:28:50.376Z,13.30
2019-03-28T18:31:21.004Z,13.30
2019-03-28T18:33:51.562Z,13.30
2019-03-28T18:36:22.148Z,13.20
2019-03-28T18:38:52.787Z,13.30
2019-03-28T18:41:23.532Z,13.20
2019-03-28T18:43:55.172Z,13.20
2019-03-28T18:46:26.207Z,13.20
2019-03-28T18:48:58.203Z,13.20
2019-03-28T18:51:28.798Z,13.20
2019-03-28T18:53:59.367Z,13.20
2019-03-28T18:56:29.992Z,13.10
2019-03-28T18:59:00.557Z,13.10
2019-03-28T19:01:31.150Z,13.10
2019-03-28T19:04:01.716Z,13.00
2019-03-28T19:06:32.315Z,13.00
2019-03-28T19:09:02.875Z,13.00
2019-03-28T19:11:33.760Z,13.00
2019-03-28T19:14:04.485Z,13.00
2019-03-28T19:16:35.817Z,12.90
2019-03-28T19:19:06.583Z,12.90
2019-03-28T19:21:37.200Z,12.90
2019-03-28T19:24:07.755Z,12.90
2019-03-28T19:26:38.425Z,12.90
2019-03-28T19:29:08.976Z,12.90
2019-03-28T19:31:39.596Z,12.90
2019-03-28T19:34:10.162Z,12.90
2019-03-28T19:36:40.746Z,12.80
2019-03-28T19:39:12.050Z,12.80
2019-03-28T19:41:42.655Z,12.80
2019-03-28T19:44:13.615Z,12.80
2019-03-28T19:46:44.204Z,12.70
2019-03-28T19:49:14.790Z,12.70
2019-03-28T19:51:47.652Z,12.60
2019-03-28T19:54:17.992Z,12.60
2019-03-28T19:56:48.606Z,12.60
2019-03-28T19:59:19.184Z,12.60
2019-03-28T20:01:49.921Z,12.60
2019-03-28T20:04:20.725Z,12.60
2019-03-28T20:06:51.558Z,12.60
2019-03-28T20:09:22.173Z,12.50
2019-03-28T20:11:52.793Z,12.50
2019-03-28T20:14:23.503Z,12.50
2019-03-28T20:16:54.101Z,12.50
2019-03-28T20:19:24.658Z,12.50
2019-03-28T20:21:55.380Z,12.40
2019-03-28T20:24:25.967Z,12.40
2019-03-28T20:26:56.603Z,12.30
2019-03-28T20:29:27.260Z,12.30
2019-03-28T20:31:58.962Z,12.20
2019-03-28T20:34:29.982Z,12.10
2019-03-28T20:37:01.020Z,12.00
2019-03-28T20:39:32.824Z,11.90
2019-03-28T20:42:03.672Z,11.90
2019-03-28T20:44:35.311Z,11.90
2019-03-28T20:47:05.954Z,11.80
2019-03-28T20:49:36.651Z,11.80
2019-03-28T20:52:09.413Z,11.80
2019-03-28T20:54:39.613Z,11.70
2019-03-28T20:57:10.247Z,11.70
2019-03-28T20:59:40.930Z,11.60
2019-03-28T21:02:11.579Z,11.60
2019-03-28T21:04:42.244Z,11.50
2019-03-28T21:07:14.566Z,11.60
2019-03-28T21:09:45.324Z,11.50
2019-03-28T21:12:15.968Z,11.50
2019-03-28T21:14:46.650Z,11.40
2019-03-28T21:17:17.288Z,11.40
2019-03-28T21:19:47.906Z,11.30
2019-03-28T21:22:18.600Z,11.20
2019-03-28T21:24:49.212Z,11.10
2019-03-28T21:27:20.788Z,11.10
2019-03-28T21:29:51.622Z,11.10
2019-03-28T21:32:22.251Z,11.00
2019-03-28T21:34:56.118Z,10.90
2019-03-28T21:37:25.241Z,10.80
2019-03-28T21:39:55.832Z,10.70
2019-03-28T21:42:26.417Z,10.60
2019-03-28T21:44:58.469Z,10.50
2019-03-28T21:47:29.334Z,10.40
2019-03-28T21:50:01.060Z,10.40
2019-03-28T21:52:32.243Z,10.30
2019-03-28T21:55:03.940Z,10.20
2019-03-28T21:57:35.591Z,10.20
2019-03-28T22:00:08.175Z,10.10
2019-03-28T22:02:38.827Z,10.00
2019-03-28T22:05:09.679Z,10.10
2019-03-28T22:07:40.416Z,10.00
2019-03-28T22:10:11.891Z,10.00
2019-03-28T22:12:42.470Z,9.90
2019-03-28T22:15:13.216Z,9.80
2019-03-28T22:17:43.790Z,9.80
2019-03-28T22:20:14.541Z,9.80
2019-03-28T22:22:45.260Z,9.80
2019-03-28T22:25:15.815Z,9.70
2019-03-28T22:27:47.574Z,9.70
2019-03-28T22:30:18.405Z,9.70
2019-03-28T22:32:50.004Z,9.70
2019-03-28T22:35:20.694Z,9.70
2019-03-28T22:37:51.261Z,9.60
2019-03-28T22:40:21.891Z,9.60
2019-03-28T22:42:52.444Z,9.50
2019-03-28T22:45:22.986Z,9.40
2019-03-28T22:47:53.650Z,9.40
2019-03-28T22:50:24.284Z,9.40
2019-03-28T22:52:55.033Z,9.30
2019-03-28T22:55:25.587Z,9.20
2019-03-28T22:57:56.218Z,9.10
2019-03-28T23:00:40.878Z,9.10
2019-03-28T23:03:13.374Z,9.10
2019-03-28T23:05:43.994Z,9.10
2019-03-28T23:08:16.407Z,9.00
2019-03-28T23:10:47.956Z,8.90
2019-03-28T23:13:19.867Z,8.90
2019-03-28T23:15:52.068Z,8.90
2019-03-28T23:18:22.755Z,8.80
2019-03-28T23:20:53.310Z,8.80
2019-03-28T23:23:23.899Z,8.80
2019-03-28T23:25:54.592Z,8.80
2019-03-28T23:28:25.316Z,8.70
2019-03-28T23:30:55.902Z,8.70
2019-03-28T23:33:26.563Z,8.70
2019-03-28T23:35:57.208Z,8.60
2019-03-28T23:38:27.787Z,8.50
2019-03-28T23:40:58.335Z,8.50
2019-03-28T23:43:28.947Z,8.50
2019-03-28T23:45:59.507Z,8.50
2019-03-28T23:48:30.135Z,8.40
2019-03-28T23:51:00.685Z,8.40
2019-03-28T23:53:31.283Z,8.40
2019-03-28T23:56:01.974Z,8.30
2019-03-28T23:58:32.598Z,8.30
